Budapest/Lorinc, Hungary

5:05 PM CET on December 09, 2016 (GMT +0100)
Abrudbánya utca | | Change Station

Elev 416 ft 47.43 °N, 19.21 °E | Updated 7 minutes ago

Mostly Cloudy
Mostly Cloudy
39.7 °F
Feels Like 37 °F
N
4.3
Wind Variable Wind from WSW
Gusts 8.7 mph

Today
High -- | Low -- °F
--% Chance of Precip.
Yesterday
High -- | Low -- °F
Precip. -- in
Pressure 30.33 in
Visibility 4.3 miles
Clouds Scattered Clouds 3500 ft
Mostly Cloudy 20000 ft
Windchill 37 °F
Dew Point 35 °F
Humidity 82%
Rainfall 0.00 in
Snow Depth Not available.
7:19 AM 3:52 PM
Waxing Gibbous, 75% visible
METAR LHKE 091545Z 22002KT 7000 SCT035 BKN200 05/M02 Q1027 NOSIG RMK WHT
Pressure 30.33 in
Visibility 4.3 miles
Clouds Scattered Clouds 3500 ft
Mostly Cloudy 20000 ft
Windchill 37 °F
Dew Point 35 °F
Humidity 82%
Rainfall 0.00 in
Snow Depth Not available.
7:19 AM 3:52 PM
Waxing Gibbous, 75% visible
METAR LHKE 091545Z 22002KT 7000 SCT035 BKN200 05/M02 Q1027 NOSIG RMK WHT

10-Day Weather Forecast

×

Almanac

Astronomy

Dec. 09, 2016 Rise Set
Actual Time
Civil Twilight
Nautical Twilight
Astronomical Twilight
Moon
Length of Visible Light
Length of Day
Tomorrow will be .
, % of the Moon is Illuminated

Today's Extremes

Country Highs Country Lows

Community

WunderPhotos

Upload Photos

1,956,462 photos uploaded!

WunderBlog® & News

Nearby

Air Quality

  Air Quality AQ Index Pollutant
Not available.

Snow Depth

Station Depth Elevation

Earthquake Activity

City Distance Mag. Time & Date
Minimum magnitude displayed is 2.5.

Coastal Water Temperatures

Place Temperature

Stations

Nearby Weather Stations

Station Location Temp. Windchill Dew Point Humidity Wind Precip. Elev Updated Type